createdAt,value
2016-11-28T00:00:23.016Z,52.2
2016-11-28T00:01:23.033Z,52.39
2016-11-28T00:02:23.047Z,52.39
2016-11-28T00:03:23.074Z,52.67
2016-11-28T00:04:23.102Z,52.58
2016-11-28T00:05:23.413Z,52.45
2016-11-28T00:06:23.427Z,53.12
2016-11-28T00:07:23.446Z,53.78
2016-11-28T00:08:23.141Z,53.41
2016-11-28T00:09:23.161Z,53.22
2016-11-28T00:10:23.176Z,53.5
2016-11-28T00:11:23.194Z,54.26
2016-11-28T00:12:23.522Z,53.41
2016-11-28T00:13:23.541Z,53.59
2016-11-28T00:14:23.241Z,53.59
2016-11-28T00:15:23.266Z,53.5
2016-11-28T00:16:23.270Z,53.78
2016-11-28T00:17:23.295Z,53.72
2016-11-28T00:18:23.628Z,53.24
2016-11-28T00:19:23.328Z,53.59
2016-11-28T00:20:23.332Z,53.12
2016-11-28T00:21:23.665Z,53.69
2016-11-28T00:22:23.370Z,53.88
2016-11-28T00:23:23.695Z,53.97
2016-11-28T00:24:23.711Z,53.69
2016-11-28T00:25:23.413Z,53.78
2016-11-28T00:26:23.745Z,53.97
2016-11-28T00:27:23.445Z,53.97
2016-11-28T00:28:23.778Z,54.17
2016-11-28T00:29:23.476Z,54.93
2016-11-28T00:30:23.492Z,54.07
2016-11-28T00:31:23.513Z,53.97
2016-11-28T00:32:23.523Z,54.26
2016-11-28T00:33:23.544Z,54.17
2016-11-28T00:34:23.904Z,54.83
2016-11-28T00:35:23.569Z,54.64
2016-11-28T00:36:23.911Z,55.02
2016-11-28T00:37:23.918Z,54.74
2016-11-28T00:38:23.620Z,54.93
2016-11-28T00:39:23.960Z,54.93
2016-11-28T00:40:23.973Z,55.21
2016-11-28T00:41:23.980Z,55.5
2016-11-28T00:42:23.678Z,55.59
2016-11-28T00:43:23.698Z,55.11
2016-11-28T00:44:23.710Z,55.02
2016-11-28T00:45:23.731Z,55.69
2016-11-28T00:46:23.745Z,55.11
2016-11-28T00:47:23.763Z,55.11
2016-11-28T00:48:24.089Z,55.11
2016-11-28T00:49:24.105Z,55.69
2016-11-28T00:50:23.835Z,55.5
2016-11-28T00:51:23.823Z,55.59
2016-11-28T00:52:24.148Z,55.4
2016-11-28T00:53:24.173Z,55.88
2016-11-28T00:54:23.868Z,55.78
2016-11-28T00:55:24.203Z,55.69
2016-11-28T00:56:23.898Z,55.59
2016-11-28T00:57:24.242Z,55.94
2016-11-28T00:58:24.257Z,56.7
2016-11-28T00:59:24.275Z,56.7
2016-11-28T01:00:24.277Z,56.99
2016-11-28T01:01:24.302Z,57.09
2016-11-28T01:02:24.317Z,57.02
2016-11-28T01:03:24.337Z,56.89
2016-11-28T01:04:24.019Z,57.11
2016-11-28T01:05:24.046Z,57.11
2016-11-28T01:06:24.378Z,56.92
2016-11-28T01:07:24.065Z,56.92
2016-11-28T01:08:24.083Z,56.07
2016-11-28T01:09:24.110Z,55.88
2016-11-28T01:10:24.433Z,55.78
2016-11-28T01:11:24.133Z,55.97
2016-11-28T01:12:24.144Z,55.97
2016-11-28T01:13:24.193Z,56.83
2016-11-28T01:14:24.493Z,56.51
2016-11-28T01:15:24.192Z,56.54
2016-11-28T01:16:24.208Z,56.54
2016-11-28T01:17:24.570Z,56.63
2016-11-28T01:18:24.239Z,56.54
2016-11-28T01:19:24.575Z,56.07
2016-11-28T01:20:24.602Z,56.16
2016-11-28T01:21:24.629Z,55.78
2016-11-28T01:22:24.299Z,55.88
2016-11-28T01:23:24.638Z,55.78
2016-11-28T01:24:24.664Z,55.21
2016-11-28T01:25:24.664Z,55.5
2016-11-28T01:26:24.673Z,55.59
2016-11-28T01:27:24.694Z,55.5
2016-11-28T01:28:24.705Z,55.21
2016-11-28T01:29:24.734Z,55.5
2016-11-28T01:30:24.421Z,55.88
2016-11-28T01:31:24.440Z,55.4
2016-11-28T01:32:24.765Z,55.69
2016-11-28T01:33:24.471Z,55.69
2016-11-28T01:34:24.802Z,55.78
2016-11-28T01:35:24.826Z,55.5
2016-11-28T01:36:24.827Z,55.4
2016-11-28T01:37:24.537Z,55.47
2016-11-28T01:38:24.567Z,55.47
2016-11-28T01:39:24.571Z,55.66
2016-11-28T01:40:24.887Z,55.76
2016-11-28T01:41:24.591Z,55.47
2016-11-28T01:42:24.604Z,55.94
2016-11-28T01:43:24.936Z,56.32
2016-11-28T01:44:24.954Z,56.7
2016-11-28T01:45:24.973Z,56.42
2016-11-28T01:46:24.982Z,56.13
2016-11-28T01:47:24.682Z,56.04
2016-11-28T01:48:25.010Z,56.42
2016-11-28T01:49:25.032Z,56.89
2016-11-28T01:50:24.727Z,57.09
2016-11-28T01:51:24.742Z,57.28
2016-11-28T01:52:25.071Z,56.8
2016-11-28T01:53:25.099Z,57.09
2016-11-28T01:54:25.100Z,57.28
2016-11-28T01:55:24.804Z,57.18
2016-11-28T01:56:24.817Z,57.18
2016-11-28T01:57:25.160Z,57.28
2016-11-28T01:58:24.848Z,57.75
2016-11-28T01:59:24.865Z,56.89
2016-11-28T02:00:24.884Z,57.28
2016-11-28T02:01:24.902Z,56.8
2016-11-28T02:02:24.907Z,56.89
2016-11-28T02:03:24.921Z,57.18
2016-11-28T02:04:25.253Z,56.8
2016-11-28T02:06:25.282Z,57.28
2016-11-28T02:07:24.991Z,56.99
2016-11-28T02:08:25.315Z,56.89
2016-11-28T02:09:25.328Z,57.18
2016-11-28T02:10:25.026Z,56.99
2016-11-28T02:11:25.374Z,56.39
2016-11-28T02:12:25.057Z,56.77
2016-11-28T02:13:25.076Z,56.99
2016-11-28T02:14:25.405Z,56.23
2016-11-28T02:15:25.110Z,56.29
2016-11-28T02:16:25.117Z,56.32
2016-11-28T02:17:25.455Z,56.77
2016-11-28T02:18:25.459Z,57.06
2016-11-28T02:19:25.477Z,56.96
2016-11-28T02:20:25.175Z,57.15
2016-11-28T02:21:25.529Z,57.06
2016-11-28T02:22:25.207Z,56.8
2016-11-28T02:23:25.243Z,56.96
2016-11-28T02:24:25.237Z,56.96
2016-11-28T02:25:25.256Z,57.62
2016-11-28T02:26:25.267Z,57.72
2016-11-28T02:27:25.281Z,57.91
2016-11-28T02:28:25.296Z,57.72
2016-11-28T02:29:25.313Z,58.1
2016-11-28T02:30:25.641Z,57.91
2016-11-28T02:31:25.340Z,57.91
2016-11-28T02:32:25.669Z,58
2016-11-28T02:33:25.372Z,58
2016-11-28T02:34:25.386Z,57.81
2016-11-28T02:35:25.715Z,58.2
2016-11-28T02:36:25.727Z,58
2016-11-28T02:37:25.431Z,56.96
2016-11-28T02:38:25.754Z,56.96
2016-11-28T02:39:25.460Z,57.43
2016-11-28T02:40:25.797Z,57.62
2016-11-28T02:41:25.489Z,58
2016-11-28T02:42:25.847Z,57.81
2016-11-28T02:43:25.518Z,57.72
2016-11-28T02:44:25.848Z,57.06
2016-11-28T02:45:25.590Z,57.43
2016-11-28T02:46:25.563Z,57.91
2016-11-28T02:47:25.572Z,57.81
2016-11-28T02:48:25.588Z,57.34
2016-11-28T02:49:25.922Z,56.77
2016-11-28T02:50:25.935Z,56.77
2016-11-28T02:51:25.958Z,56.87
2016-11-28T02:52:25.962Z,56.96
2016-11-28T02:53:25.977Z,56.87
2016-11-28T02:54:25.994Z,57.53
2016-11-28T02:55:25.693Z,57.91
2016-11-28T02:56:25.706Z,57.24
2016-11-28T02:57:25.726Z,58
2016-11-28T02:58:26.052Z,58.1
2016-11-28T02:59:26.077Z,58.1
2016-11-28T03:00:26.081Z,57.43
2016-11-28T03:01:25.785Z,57.06
2016-11-28T03:02:25.795Z,57.06
2016-11-28T03:03:26.132Z,57.59
2016-11-28T03:04:26.138Z,58.07
2016-11-28T03:05:25.843Z,57.98
2016-11-28T03:06:26.179Z,58.54
2016-11-28T03:07:25.877Z,58.64
2016-11-28T03:08:25.880Z,58.83
2016-11-28T03:09:25.907Z,58.83
2016-11-28T03:10:26.226Z,58.73
2016-11-28T03:11:26.240Z,58.64
2016-11-28T03:12:25.965Z,58.64
2016-11-28T03:13:26.286Z,58.54
2016-11-28T03:14:26.315Z,58.54
2016-11-28T03:15:26.304Z,58.36
2016-11-28T03:16:25.995Z,58.45
2016-11-28T03:17:26.342Z,58.07
2016-11-28T03:18:26.026Z,57.98
2016-11-28T03:19:26.043Z,57.88
2016-11-28T03:20:26.056Z,58.26
2016-11-28T03:21:26.387Z,58.07
2016-11-28T03:22:26.396Z,58.83
2016-11-28T03:23:26.101Z,58.83
2016-11-28T03:24:26.112Z,58.92
2016-11-28T03:25:26.441Z,58.92
2016-11-28T03:26:26.140Z,58.83
2016-11-28T03:27:26.475Z,59.11
2016-11-28T03:28:26.169Z,59.11
2016-11-28T03:29:26.515Z,58.73
2016-11-28T03:30:26.514Z,58.92
2016-11-28T03:31:26.212Z,58.64
2016-11-28T03:32:26.542Z,58.73
2016-11-28T03:33:26.240Z,58.92
2016-11-28T03:34:26.254Z,59.21
2016-11-28T03:35:26.278Z,58.83
2016-11-28T03:36:26.288Z,58.92
2016-11-28T03:37:26.294Z,58.92
2016-11-28T03:38:26.311Z,58.73
2016-11-28T03:39:26.323Z,59.21
2016-11-28T03:40:26.340Z,58.83
2016-11-28T03:41:26.666Z,58.64
2016-11-28T03:42:26.369Z,58.64
2016-11-28T03:43:26.381Z,58.92
2016-11-28T03:44:26.711Z,58.83
2016-11-28T03:45:26.409Z,58.54
2016-11-28T03:46:26.739Z,58.17
2016-11-28T03:47:26.438Z,57.88
2016-11-28T03:48:26.451Z,57.79
2016-11-28T03:49:26.467Z,57.98
2016-11-28T03:50:26.482Z,58.07
2016-11-28T03:51:26.492Z,57.98
2016-11-28T03:52:26.822Z,58.54
2016-11-28T03:53:26.520Z,57.88
2016-11-28T03:54:26.536Z,58.36
2016-11-28T03:55:26.863Z,58.92
2016-11-28T03:56:26.878Z,58.54
2016-11-28T03:57:26.579Z,58.92
2016-11-28T03:58:26.593Z,58.64
2016-11-28T03:59:26.920Z,59.21
2016-11-28T04:00:26.938Z,59.3
2016-11-28T04:01:26.637Z,59.21
2016-11-28T04:02:26.645Z,58.7
2016-11-28T04:03:26.981Z,58.42
2016-11-28T04:04:27.001Z,58.26
2016-11-28T04:05:27.003Z,58.07
2016-11-28T04:06:26.702Z,58.23
2016-11-28T04:07:26.717Z,58.73
2016-11-28T04:08:27.048Z,59.3
2016-11-28T04:09:27.061Z,58.54
2016-11-28T04:10:26.760Z,58.89
2016-11-28T04:11:27.094Z,58.92
2016-11-28T04:12:26.786Z,58.99
2016-11-28T04:13:26.801Z,59.18
2016-11-28T04:14:27.130Z,59.11
2016-11-28T04:15:26.828Z,59.18
2016-11-28T04:16:27.158Z,59.18
2016-11-28T04:17:27.171Z,59.18
2016-11-28T04:18:26.879Z,58.83
2016-11-28T04:19:26.889Z,58.99
2016-11-28T04:20:26.898Z,58.99
2016-11-28T04:21:26.915Z,58.99
2016-11-28T04:22:26.930Z,58.99
2016-11-28T04:23:26.941Z,59.46
2016-11-28T04:24:27.267Z,59.18
2016-11-28T04:25:26.968Z,58.89
2016-11-28T04:26:26.982Z,59.27
2016-11-28T04:27:27.312Z,58.7
2016-11-28T04:28:27.007Z,59.18
2016-11-28T04:29:27.350Z,58.99
2016-11-28T04:30:27.036Z,59.08
2016-11-28T04:31:27.368Z,58.14
2016-11-28T04:32:27.064Z,58.23
2016-11-28T04:33:27.415Z,58.14
2016-11-28T04:34:27.408Z,58.8
2016-11-28T04:35:27.105Z,58.7
2016-11-28T04:36:27.121Z,58.7
2016-11-28T04:37:27.135Z,58.8
2016-11-28T04:38:27.149Z,58.8
2016-11-28T04:39:27.167Z,59.84
2016-11-28T04:40:27.491Z,59.46
2016-11-28T04:41:27.192Z,59.66
2016-11-28T04:42:27.202Z,58.89
2016-11-28T04:43:27.215Z,59.08
2016-11-28T04:44:27.232Z,59.27
2016-11-28T04:45:27.242Z,58.64
2016-11-28T04:46:27.255Z,58.61
2016-11-28T04:47:27.604Z,58.61
2016-11-28T04:48:27.299Z,58.7
2016-11-28T04:49:27.299Z,58.89
2016-11-28T04:50:27.313Z,58.33
2016-11-28T04:51:27.325Z,58.8
2016-11-28T04:52:27.687Z,58.51
2016-11-28T04:53:27.353Z,58.89
2016-11-28T04:54:27.682Z,59.08
2016-11-28T04:55:27.700Z,58.7
2016-11-28T04:56:27.713Z,58.8
2016-11-28T04:57:27.721Z,58.51
2016-11-28T04:58:27.424Z,58.33
2016-11-28T04:59:27.437Z,58.8
2016-11-28T05:00:27.449Z,58.8
2016-11-28T05:01:27.778Z,58.89
2016-11-28T05:02:27.480Z,58.8
2016-11-28T05:03:27.497Z,57.85
2016-11-28T05:04:27.504Z,57.95
2016-11-28T05:05:27.525Z,58.7
2016-11-28T05:06:27.845Z,58.61
2016-11-28T05:07:27.547Z,58.8
2016-11-28T05:08:27.561Z,58.7
2016-11-28T05:09:27.574Z,58.7
2016-11-28T05:10:27.905Z,58.7
2016-11-28T05:11:27.602Z,58.51
2016-11-28T05:12:27.614Z,58.7
2016-11-28T05:13:27.945Z,58.89
2016-11-28T05:14:27.648Z,58.89
2016-11-28T05:15:27.659Z,58.8
2016-11-28T05:16:27.670Z,58.33
2016-11-28T05:17:28.002Z,58.33
2016-11-28T05:18:27.697Z,58.8
2016-11-28T05:19:27.711Z,59.08
2016-11-28T05:20:28.041Z,59.18
2016-11-28T05:21:27.737Z,59.18
2016-11-28T05:22:28.068Z,59.94
2016-11-28T05:23:27.766Z,59.94
2016-11-28T05:24:28.094Z,60.03
2016-11-28T05:25:27.794Z,59.66
2016-11-28T05:26:27.806Z,60.13
2016-11-28T05:27:28.137Z,58.8
2016-11-28T05:28:28.150Z,58.7
2016-11-28T05:29:27.852Z,58.61
2016-11-28T05:30:27.864Z,58.7
2016-11-28T05:31:27.875Z,59.27
2016-11-28T05:32:28.204Z,59.94
2016-11-28T05:33:27.901Z,59.27
2016-11-28T05:34:27.918Z,59.08
2016-11-28T05:35:27.932Z,59.08
2016-11-28T05:36:27.942Z,58.89
2016-11-28T05:37:27.958Z,59.94
2016-11-28T05:38:28.301Z,59.94
2016-11-28T05:39:28.302Z,58.99
2016-11-28T05:40:28.312Z,58.8
2016-11-28T05:41:28.326Z,58.51
2016-11-28T05:42:28.345Z,58.99
2016-11-28T05:43:28.354Z,58.99
2016-11-28T05:44:28.054Z,58.99
2016-11-28T05:45:28.381Z,59.08
2016-11-28T05:46:28.398Z,59.08
2016-11-28T05:47:28.091Z,59.08
2016-11-28T05:48:28.110Z,59.18
2016-11-28T05:49:28.435Z,59.08
2016-11-28T05:50:28.133Z,59.18
2016-11-28T05:51:28.146Z,59.08
2016-11-28T05:52:28.173Z,58.8
2016-11-28T05:53:28.489Z,58.8
2016-11-28T05:54:28.186Z,58.7
2016-11-28T05:55:28.202Z,58.7
2016-11-28T05:56:28.215Z,58.61
2016-11-28T05:57:28.542Z,58.61
2016-11-28T05:58:28.244Z,58.7
2016-11-28T05:59:28.570Z,58.61
2016-11-28T06:00:28.274Z,58.42
2016-11-28T06:01:28.281Z,58.14
2016-11-28T06:02:28.297Z,58.04
2016-11-28T06:03:28.649Z,58.14
2016-11-28T06:04:28.641Z,57.95
2016-11-28T06:05:28.338Z,58.33
2016-11-28T06:06:28.670Z,58.14
2016-11-28T06:07:28.367Z,58.04
2016-11-28T06:08:28.696Z,58.14
2016-11-28T06:09:28.709Z,58.29
2016-11-28T06:10:28.406Z,58.89
2016-11-28T06:11:28.736Z,58.61
2016-11-28T06:12:28.434Z,58.86
2016-11-28T06:13:28.766Z,59.18
2016-11-28T06:14:28.466Z,58.99
2016-11-28T06:15:28.793Z,58.7
2016-11-28T06:16:28.802Z,58.8
2016-11-28T06:17:28.837Z,58.99
2016-11-28T06:18:28.513Z,59.18
2016-11-28T06:19:28.530Z,58.99
2016-11-28T06:20:28.856Z,59.08
2016-11-28T06:21:28.557Z,58.99
2016-11-28T06:22:28.569Z,59.08
2016-11-28T06:23:28.900Z,58.89
2016-11-28T06:24:28.915Z,58.61
2016-11-28T06:25:28.617Z,58.8
2016-11-28T06:26:28.940Z,58.23
2016-11-28T06:27:28.953Z,58.23
2016-11-28T06:28:28.656Z,58.51
2016-11-28T06:29:28.664Z,57.95
2016-11-28T06:30:28.679Z,58.61
2016-11-28T06:31:29.010Z,58.7
2016-11-28T06:32:28.703Z,58.89
2016-11-28T06:33:29.032Z,57.85
2016-11-28T06:34:28.737Z,58.2
2016-11-28T06:35:28.748Z,57.64
2016-11-28T06:36:28.761Z,58.01
2016-11-28T06:37:29.086Z,58.58
2016-11-28T06:38:28.789Z,57.73
2016-11-28T06:39:29.126Z,57.92
2016-11-28T06:40:28.815Z,57.16
2016-11-28T06:41:28.828Z,57.73
2016-11-28T06:42:28.841Z,57.54
2016-11-28T06:43:28.872Z,57.35
2016-11-28T06:44:28.886Z,56.99
2016-11-28T06:45:29.196Z,56.99
2016-11-28T06:46:29.217Z,56.81
2016-11-28T06:47:29.222Z,56.52
2016-11-28T06:48:28.921Z,56.52
2016-11-28T06:49:28.936Z,56.9
2016-11-28T06:50:28.952Z,57.66
2016-11-28T06:51:29.282Z,57.66
2016-11-28T06:52:29.292Z,56.9
2016-11-28T06:53:29.316Z,56.81
2016-11-28T06:54:29.004Z,57.06
2016-11-28T06:55:29.015Z,57.16
2016-11-28T06:56:29.343Z,57.73
2016-11-28T06:57:29.071Z,58.01
2016-11-28T06:58:29.076Z,57.35
2016-11-28T06:59:29.071Z,57.73
2016-11-28T07:00:29.402Z,57.54
2016-11-28T07:01:29.429Z,57.73
2016-11-28T07:02:29.426Z,58.04
2016-11-28T07:03:29.438Z,57.35
2016-11-28T07:04:29.453Z,57.66
2016-11-28T07:05:29.151Z,57.44
2016-11-28T07:06:29.167Z,57.54
2016-11-28T07:07:29.495Z,57.85
2016-11-28T07:08:29.191Z,57.85
2016-11-28T07:09:29.204Z,56.97
2016-11-28T07:10:29.533Z,57.25
2016-11-28T07:11:29.233Z,57.54
2016-11-28T07:12:29.245Z,57.25
2016-11-28T07:13:29.573Z,57.92
2016-11-28T07:14:29.272Z,57.73
2016-11-28T07:15:29.605Z,57.73
2016-11-28T07:16:29.615Z,57.76
2016-11-28T07:17:29.313Z,57.64
2016-11-28T07:18:29.641Z,58.11
2016-11-28T07:19:29.668Z,57.82
2016-11-28T07:20:29.365Z,57.85
2016-11-28T07:21:29.688Z,57.82
2016-11-28T07:22:29.381Z,58.01
2016-11-28T07:23:29.393Z,58.58
2016-11-28T07:24:29.725Z,57.95
2016-11-28T07:25:29.735Z,57.76
2016-11-28T07:26:29.752Z,58.04
2016-11-28T07:27:29.448Z,57.95
2016-11-28T07:28:29.462Z,57.76
2016-11-28T07:29:29.478Z,56.81
2016-11-28T07:30:29.803Z,56.99
2016-11-28T07:31:29.867Z,56.99
2016-11-28T07:32:29.514Z,56.71
2016-11-28T07:33:29.856Z,57.57
2016-11-28T07:34:29.552Z,57.76
2016-11-28T07:35:29.555Z,57.76
2016-11-28T07:36:29.568Z,57.57
2016-11-28T07:37:29.898Z,57.76
2016-11-28T07:38:29.908Z,57.85
2016-11-28T07:39:29.610Z,56.99
2016-11-28T07:40:29.938Z,56.81
2016-11-28T07:41:29.638Z,56.81
2016-11-28T07:42:29.654Z,56.81
2016-11-28T07:43:29.667Z,56.52
2016-11-28T07:44:29.676Z,56.71
2016-11-28T07:45:30.008Z,57.09
2016-11-28T07:46:29.705Z,55.67
2016-11-28T07:47:29.716Z,55.38
2016-11-28T07:48:29.731Z,56.59
2016-11-28T07:49:29.745Z,56.4
2016-11-28T07:50:30.075Z,56.87
2016-11-28T07:51:29.770Z,57.19
2016-11-28T07:52:29.782Z,56.9
2016-11-28T07:53:30.111Z,56.24
2016-11-28T07:54:29.809Z,56.97
2016-11-28T07:55:29.827Z,56.97
2016-11-28T07:56:29.840Z,57.73
2016-11-28T07:57:30.168Z,57.54
2016-11-28T07:58:30.180Z,57.64
2016-11-28T07:59:29.891Z,57.64
2016-11-28T08:00:29.892Z,57.82
2016-11-28T08:01:29.909Z,57.76
2016-11-28T08:02:30.232Z,57.76
2016-11-28T08:03:29.932Z,56.81
2016-11-28T08:04:30.258Z,56.71
2016-11-28T08:05:30.281Z,56.9
2016-11-28T08:06:30.289Z,55.57
2016-11-28T08:07:30.301Z,55.96
2016-11-28T08:08:30.314Z,56.52
2016-11-28T08:09:30.336Z,56.43
2016-11-28T08:10:30.341Z,56.34
2016-11-28T08:11:30.037Z,56.05
2016-11-28T08:12:30.056Z,55.48
2016-11-28T08:13:30.067Z,55.76
2016-11-28T08:14:30.395Z,55.38
2016-11-28T08:15:30.092Z,54.82
2016-11-28T08:16:30.425Z,54.82
2016-11-28T08:17:30.122Z,55
2016-11-28T08:18:30.132Z,55.57
2016-11-28T08:19:30.462Z,54.91
2016-11-28T08:20:30.493Z,54.53
2016-11-28T08:21:30.179Z,53.96
2016-11-28T08:22:30.188Z,53.77
2016-11-28T08:23:30.204Z,53.96
2016-11-28T08:24:30.554Z,55
2016-11-28T08:25:30.254Z,54.25
2016-11-28T08:26:30.247Z,54.63
2016-11-28T08:27:30.260Z,54.15
2016-11-28T08:28:30.274Z,53.49
2016-11-28T08:29:30.285Z,53.58
2016-11-28T08:30:30.300Z,53.2
2016-11-28T08:31:30.318Z,53.02
2016-11-28T08:32:30.643Z,52.83
2016-11-28T08:33:30.657Z,53.49
2016-11-28T08:34:30.681Z,53.39
2016-11-28T08:35:30.369Z,53.3
2016-11-28T08:36:30.698Z,52.64
2016-11-28T08:37:30.712Z,52.26
2016-11-28T08:38:30.430Z,53.11
2016-11-28T08:39:30.441Z,54.06
2016-11-28T08:40:30.437Z,53.58
2016-11-28T08:41:30.766Z,52.06
2016-11-28T08:42:30.464Z,51.87
2016-11-28T08:43:30.796Z,52.64
2016-11-28T08:44:30.494Z,53.2
2016-11-28T08:45:30.509Z,52.64
2016-11-28T08:46:30.524Z,51.4
2016-11-28T08:47:30.535Z,51.21
2016-11-28T08:48:30.548Z,52.16
2016-11-28T08:49:30.566Z,52.73
2016-11-28T08:50:30.577Z,52.35
2016-11-28T08:51:30.590Z,52.45
2016-11-28T08:52:30.604Z,51.68
2016-11-28T08:53:30.618Z,52.16
2016-11-28T08:54:30.947Z,51.4
2016-11-28T08:55:30.644Z,50.55
2016-11-28T08:56:30.659Z,51.03
2016-11-28T08:57:30.990Z,51.59
2016-11-28T08:58:30.686Z,50.29
2016-11-28T08:59:30.702Z,47.73
2016-11-28T09:00:31.031Z,47.85
2016-11-28T09:01:30.730Z,47.56
2016-11-28T09:02:31.059Z,47.37
2016-11-28T09:03:30.758Z,47.47
2016-11-28T09:04:31.086Z,46.99
2016-11-28T09:05:31.102Z,47.56
2016-11-28T09:06:31.118Z,46.99
2016-11-28T09:07:30.814Z,47.85
2016-11-28T09:08:30.852Z,46.51
2016-11-28T09:09:30.844Z,46.33
2016-11-28T09:10:30.860Z,47.39
2016-11-28T09:11:31.191Z,45.12
2016-11-28T09:12:31.209Z,45.12
2016-11-28T09:13:30.908Z,44.19
2016-11-28T09:14:31.239Z,43.14
2016-11-28T09:15:30.939Z,41.55
2016-11-28T09:16:30.954Z,40.95
2016-11-28T09:17:31.285Z,41.14
2016-11-28T09:18:31.313Z,40.98
2016-11-28T09:19:31.319Z,40.03
2016-11-28T09:20:31.335Z,39.93
2016-11-28T09:21:31.038Z,39.93
2016-11-28T09:22:31.061Z,39.65
2016-11-28T09:23:31.073Z,40.31
2016-11-28T09:24:31.093Z,38.6
2016-11-28T09:25:31.437Z,37.84
2016-11-28T09:26:31.119Z,36.98
2016-11-28T09:27:31.138Z,37.74
2016-11-28T09:28:31.472Z,36.81
2016-11-28T09:29:31.185Z,36.05
2016-11-28T09:30:31.196Z,37.69
2016-11-28T09:31:31.207Z,37.78
2016-11-28T09:32:31.222Z,37.8
2016-11-28T09:33:31.558Z,37.9
2016-11-28T09:34:31.261Z,33.82
2016-11-28T09:35:31.593Z,33.25
2016-11-28T09:36:31.666Z,33.06
2016-11-28T09:37:31.629Z,32.58
2016-11-28T09:38:31.648Z,32.68
2016-11-28T09:39:31.348Z,32.68
2016-11-28T09:40:31.684Z,33.72
2016-11-28T09:41:31.390Z,33.06
2016-11-28T09:42:31.721Z,33.15
2016-11-28T09:43:31.739Z,30.98
2016-11-28T09:44:31.468Z,31.82
2016-11-28T09:45:31.778Z,30.69
2016-11-28T09:46:31.479Z,31.74
2016-11-28T09:47:31.500Z,30.88
2016-11-28T09:48:31.519Z,30.69
2016-11-28T09:49:31.854Z,30.99
2016-11-28T09:50:31.559Z,30.99
2016-11-28T09:51:31.580Z,29.75
2016-11-28T09:52:31.913Z,30.42
2016-11-28T09:53:31.638Z,29.94
2016-11-28T09:54:31.952Z,29.58
2016-11-28T09:55:32.073Z,28.91
2016-11-28T09:56:31.695Z,27.86
2016-11-28T09:57:31.694Z,28.13
2016-11-28T09:58:31.713Z,29.56
2016-11-28T09:59:31.745Z,31.76
2016-11-28T10:00:31.763Z,34.06
2016-11-28T10:01:32.090Z,31.1
2016-11-28T10:02:32.108Z,27.28
2016-11-28T10:03:31.813Z,27.38
2016-11-28T10:04:31.829Z,28.33
2016-11-28T10:05:32.168Z,27.3
2016-11-28T10:06:32.183Z,28.33
2016-11-28T10:07:32.222Z,30.72
2016-11-28T10:08:31.917Z,31.87
2016-11-28T10:09:31.926Z,30.82
2016-11-28T10:10:32.281Z,28.06
2016-11-28T10:11:31.971Z,27.39
2016-11-28T10:12:31.986Z,30.91
2016-11-28T10:13:32.006Z,28.06
2016-11-28T10:14:32.029Z,27.97
2016-11-28T10:15:32.045Z,25.96
2016-11-28T10:16:32.382Z,26.24
2016-11-28T10:17:32.085Z,26.52
2016-11-28T10:18:32.103Z,28.33
2016-11-28T10:19:32.123Z,29.49
2016-11-28T10:20:32.462Z,27.87
2016-11-28T10:21:32.480Z,25.96
2016-11-28T10:22:32.185Z,26.43
2016-11-28T10:23:32.212Z,27.28
2016-11-28T10:24:32.223Z,27
2016-11-28T10:25:32.243Z,27.09
2016-11-28T10:26:32.577Z,28.24
2016-11-28T10:27:32.599Z,26.06
2016-11-28T10:28:32.305Z,27
2016-11-28T10:29:32.323Z,26.9
2016-11-28T10:30:32.344Z,26.52
2016-11-28T10:31:32.363Z,27.19
2016-11-28T10:32:32.699Z,27
2016-11-28T10:33:32.408Z,27.38
2016-11-28T10:34:32.738Z,26.52
2016-11-28T10:35:32.444Z,25.29
2016-11-28T10:36:32.779Z,26.51
2016-11-28T10:37:32.806Z,27.27
2016-11-28T10:38:32.501Z,26.79
2016-11-28T10:39:32.531Z,26.98
2016-11-28T10:40:32.861Z,29.29
2016-11-28T10:41:32.877Z,28.24
2016-11-28T10:42:32.579Z,27.87
2016-11-28T10:43:32.917Z,25.29
2016-11-28T10:44:32.938Z,25.95
2016-11-28T10:45:32.639Z,25.28
2016-11-28T10:46:32.972Z,27.57
2016-11-28T10:47:32.679Z,26.52
2016-11-28T10:48:32.718Z,26.04
2016-11-28T10:49:33.035Z,24.8
2016-11-28T10:50:32.739Z,25.27
2016-11-28T10:51:32.758Z,25.65
2016-11-28T10:52:32.776Z,28.99
2016-11-28T10:53:33.114Z,26.43
2016-11-28T10:54:32.816Z,25.67
2016-11-28T10:55:33.157Z,25.84
2016-11-28T10:56:33.174Z,26.13
2016-11-28T10:57:33.192Z,26.61
2016-11-28T10:58:33.215Z,26.42
2016-11-28T10:59:33.230Z,27.47
2016-11-28T11:00:32.933Z,29.58
2016-11-28T11:01:32.953Z,27.28
2016-11-28T11:02:33.286Z,25.87
2016-11-28T11:03:33.308Z,26.06
2016-11-28T11:04:33.325Z,25.1
2016-11-28T11:05:33.349Z,25.58
2016-11-28T11:06:33.049Z,24.24
2016-11-28T11:07:33.091Z,24.99
2016-11-28T11:08:33.404Z,25.67
2016-11-28T11:09:33.107Z,26.61
2016-11-28T11:10:33.443Z,27.19
2016-11-28T11:11:33.462Z,26.24
2016-11-28T11:12:33.166Z,26.14
2016-11-28T11:13:33.499Z,26.61
2016-11-28T11:14:33.204Z,27.66
2016-11-28T11:15:33.233Z,27.55
2016-11-28T11:16:33.559Z,27.56
2016-11-28T11:17:33.261Z,29.64
2016-11-28T11:18:33.597Z,28.7
2016-11-28T11:19:33.303Z,27.18
2016-11-28T11:20:33.634Z,27.56
2016-11-28T11:21:33.652Z,28.03
2016-11-28T11:22:33.371Z,27.56
2016-11-28T11:23:33.696Z,27.55
2016-11-28T11:24:33.709Z,28.21
2016-11-28T11:25:33.432Z,28.59
2016-11-28T11:26:33.750Z,28.4
2016-11-28T11:27:33.454Z,29.16
2016-11-28T11:28:33.472Z,31.45
2016-11-28T11:29:33.492Z,29.55
2016-11-28T11:30:33.510Z,29.07
2016-11-28T11:31:33.545Z,28.88
2016-11-28T11:32:33.865Z,29.18
2016-11-28T11:33:48.457Z,29.27
2016-11-28T11:34:33.902Z,29.08
2016-11-28T11:35:33.603Z,30.71
2016-11-28T11:36:33.620Z,31.01
2016-11-28T11:37:33.972Z,30.05
2016-11-28T11:38:33.977Z,29.58
2016-11-28T11:39:33.679Z,29.94
2016-11-28T11:40:34.014Z,29.1
2016-11-28T11:41:33.719Z,29.37
2016-11-28T11:42:34.054Z,29.94
2016-11-28T11:43:34.072Z,29.96
2016-11-28T11:44:33.776Z,29.77
2016-11-28T11:45:34.134Z,28.91
2016-11-28T11:46:33.829Z,28.81
2016-11-28T11:47:34.147Z,29.56
2016-11-28T11:48:33.852Z,29.85
2016-11-28T11:49:33.868Z,29.94
2016-11-28T11:50:33.888Z,30.71
2016-11-28T11:51:33.906Z,30.13
2016-11-28T11:52:34.255Z,28.91
2016-11-28T11:53:34.262Z,29.27
2016-11-28T11:54:34.281Z,29.66
2016-11-28T11:55:34.298Z,30.61
2016-11-28T11:56:34.317Z,31.56
2016-11-28T11:57:34.333Z,33.47
2016-11-28T11:58:34.039Z,31.1
2016-11-28T11:59:34.064Z,32.34
2016-11-28T12:00:34.098Z,33.01
2016-11-28T12:01:34.110Z,29.67
2016-11-28T12:02:34.115Z,29.37
2016-11-28T12:03:34.135Z,29.86
2016-11-28T12:04:34.153Z,29.94
2016-11-28T12:05:34.487Z,29.75
2016-11-28T12:06:34.189Z,29.85
2016-11-28T12:07:34.224Z,29.83
2016-11-28T12:08:34.236Z,31.07
2016-11-28T12:09:34.563Z,33.84
2016-11-28T12:10:34.583Z,35.27
2016-11-28T12:11:34.284Z,32.21
2016-11-28T12:12:34.304Z,31.74
2016-11-28T12:13:34.321Z,31.28
2016-11-28T12:14:34.339Z,31.36
2016-11-28T12:15:34.359Z,32.03
2016-11-28T12:16:34.691Z,32.69
2016-11-28T12:17:34.396Z,30.69
2016-11-28T12:18:34.414Z,30.69
2016-11-28T12:19:34.430Z,30.79
2016-11-28T12:20:34.767Z,30.96
2016-11-28T12:21:34.782Z,31.44
2016-11-28T12:22:34.821Z,32.01
2016-11-28T12:23:34.519Z,34.03
2016-11-28T12:24:34.521Z,35.64
2016-11-28T12:25:34.542Z,34.12
2016-11-28T12:26:34.565Z,31.93
2016-11-28T12:27:34.893Z,31.36
2016-11-28T12:28:34.598Z,30.98
2016-11-28T12:29:34.932Z,30.6
2016-11-28T12:30:34.948Z,30.68
2016-11-28T12:31:34.651Z,32.2
2016-11-28T12:32:34.670Z,31.93
2016-11-28T12:33:35.009Z,30.87
2016-11-28T12:34:34.706Z,30.49
2016-11-28T12:35:34.724Z,31.15
2016-11-28T12:36:34.740Z,31.53
2016-11-28T12:37:34.760Z,31.99
2016-11-28T12:38:34.778Z,32.18
2016-11-28T12:39:35.112Z,31.72
2016-11-28T12:40:35.129Z,31.32
2016-11-28T12:41:34.827Z,31.9
2016-11-28T12:42:34.847Z,32.95
2016-11-28T12:43:34.870Z,35.06
2016-11-28T12:44:35.199Z,35.72
2016-11-28T12:45:35.218Z,33.64
2016-11-28T12:46:35.243Z,31.84
2016-11-28T12:47:35.252Z,30.6
2016-11-28T12:48:34.955Z,29.93
2016-11-28T12:49:35.289Z,28.88
2016-11-28T12:50:35.307Z,29.55
2016-11-28T12:51:35.010Z,28.78
2016-11-28T12:52:35.032Z,29.25
2016-11-28T12:53:35.055Z,29.9
2016-11-28T12:54:35.063Z,29.91
2016-11-28T12:55:35.083Z,29.82
2016-11-28T12:56:35.417Z,30.58
2016-11-28T12:57:35.118Z,28.96